createdAt,value
2023-04-05T00:00:04.336Z,2.85
2023-04-05T00:00:36.765Z,2.87
2023-04-05T00:01:09.217Z,2.85
2023-04-05T00:01:41.680Z,2.91
2023-04-05T00:02:14.263Z,2.89
2023-04-05T00:02:46.703Z,2.92
2023-04-05T00:03:19.139Z,2.88
2023-04-05T00:03:51.541Z,2.87
2023-04-05T00:04:24.148Z,2.85
2023-04-05T00:04:56.366Z,2.82
2023-04-05T00:05:28.764Z,2.79
2023-04-05T00:06:01.218Z,2.81
2023-04-05T00:06:33.670Z,2.82
2023-04-05T00:07:06.172Z,2.84
2023-04-05T00:07:38.654Z,2.88
2023-04-05T00:08:11.072Z,2.89
2023-04-05T00:08:43.504Z,2.88
2023-04-05T00:09:15.941Z,2.91
2023-04-05T00:09:48.393Z,2.92
2023-04-05T00:10:20.833Z,2.91
2023-04-05T00:10:53.267Z,2.89
2023-04-05T00:11:25.676Z,2.91
2023-04-05T00:11:58.134Z,2.88
2023-04-05T00:12:30.584Z,2.88
2023-04-05T00:13:03.001Z,2.85
2023-04-05T00:13:35.418Z,2.81
2023-04-05T00:14:07.890Z,2.79
2023-04-05T00:14:40.358Z,2.77
2023-04-05T00:15:12.768Z,2.81
2023-04-05T00:15:45.216Z,2.79
2023-04-05T00:16:17.746Z,2.77
2023-04-05T00:16:50.261Z,2.79
2023-04-05T00:17:22.632Z,2.82
2023-04-05T00:17:55.022Z,2.84
2023-04-05T00:18:27.430Z,2.84
2023-04-05T00:18:59.892Z,2.87
2023-04-05T00:19:32.328Z,2.87
2023-04-05T00:20:04.790Z,2.89
2023-04-05T00:20:37.236Z,2.92
2023-04-05T00:21:09.730Z,2.98
2023-04-05T00:21:42.179Z,2.95
2023-04-05T00:22:14.617Z,2.98
2023-04-05T00:22:47.051Z,2.95
2023-04-05T00:23:19.475Z,2.95
2023-04-05T00:23:51.965Z,2.92
2023-04-05T00:24:24.439Z,2.91
2023-04-05T00:24:56.876Z,2.92
2023-04-05T00:25:29.335Z,2.91
2023-04-05T00:26:01.770Z,2.89
2023-04-05T00:26:34.197Z,2.88
2023-04-05T00:27:06.684Z,2.91
2023-04-05T00:27:39.156Z,2.92
2023-04-05T00:28:11.616Z,2.95
2023-04-05T00:28:44.068Z,2.95
2023-04-05T00:29:16.518Z,2.98
2023-04-05T00:29:48.971Z,2.97
2023-04-05T00:30:21.430Z,2.98
2023-04-05T00:30:53.846Z,2.94
2023-04-05T00:31:26.307Z,2.97
2023-04-05T00:31:58.760Z,2.98
2023-04-05T00:32:31.152Z,2.98
2023-04-05T00:33:03.669Z,3.02
2023-04-05T00:33:35.997Z,3.05
2023-04-05T00:34:08.437Z,3.07
2023-04-05T00:34:40.873Z,3.07
2023-04-05T00:35:13.324Z,3.10
2023-04-05T00:35:45.795Z,3.12
2023-04-05T00:36:18.203Z,3.12
2023-04-05T00:36:50.655Z,3.12
2023-04-05T00:37:23.077Z,3.12
2023-04-05T00:37:55.530Z,3.10
2023-04-05T00:38:27.973Z,3.13
2023-04-05T00:39:00.408Z,3.10
2023-04-05T00:39:32.823Z,3.16
2023-04-05T00:40:05.252Z,3.13
2023-04-05T00:40:37.771Z,3.12
2023-04-05T00:41:10.145Z,3.15
2023-04-05T00:41:42.585Z,3.13
2023-04-05T00:42:15.019Z,3.13
2023-04-05T00:42:47.467Z,3.13
2023-04-05T00:43:19.875Z,3.15
2023-04-05T00:43:52.337Z,3.15
2023-04-05T00:44:24.781Z,3.16
2023-04-05T00:44:57.247Z,3.18
2023-04-05T00:45:29.663Z,3.20
2023-04-05T00:46:02.172Z,3.20
2023-04-05T00:46:34.650Z,3.21
2023-04-05T00:47:07.014Z,3.18
2023-04-05T00:47:39.493Z,3.16
2023-04-05T00:48:12.060Z,3.20
2023-04-05T00:48:44.357Z,3.18
2023-04-05T00:49:16.807Z,3.16
2023-04-05T00:49:49.257Z,3.13
2023-04-05T00:50:21.708Z,3.16
2023-04-05T00:50:54.184Z,3.18
2023-04-05T00:51:26.624Z,3.18
2023-04-05T00:51:59.102Z,3.15
2023-04-05T00:52:31.560Z,3.18
2023-04-05T00:53:04.024Z,3.15
2023-04-05T00:53:36.473Z,3.12
2023-04-05T00:54:08.922Z,3.10
2023-04-05T00:54:41.376Z,3.12
2023-04-05T00:55:13.847Z,3.07
2023-04-05T00:55:46.289Z,3.05
2023-04-05T00:56:18.761Z,3.00
2023-04-05T00:56:51.205Z,2.98
2023-04-05T00:57:23.656Z,2.95
2023-04-05T00:57:56.141Z,2.94
2023-04-05T00:58:28.547Z,2.89
2023-04-05T00:59:01.007Z,2.87
2023-04-05T00:59:33.551Z,2.87
2023-04-05T01:00:05.904Z,2.85
2023-04-05T01:00:38.456Z,2.84
2023-04-05T01:01:10.810Z,2.85
2023-04-05T01:01:43.409Z,2.81
2023-04-05T01:02:15.684Z,2.79
2023-04-05T01:02:48.144Z,2.74
2023-04-05T01:03:20.637Z,2.74
2023-04-05T01:03:53.049Z,2.70
2023-04-05T01:04:25.557Z,2.71
2023-04-05T01:04:57.957Z,2.69
2023-04-05T01:05:30.436Z,2.64
2023-04-05T01:06:02.892Z,2.63
2023-04-05T01:06:35.362Z,2.61
2023-04-05T01:07:07.830Z,2.56
2023-04-05T01:07:40.259Z,2.51
2023-04-05T01:08:12.722Z,2.46
2023-04-05T01:08:45.148Z,2.44
2023-04-05T01:09:17.601Z,2.40
2023-04-05T01:09:50.029Z,2.40
2023-04-05T01:10:22.517Z,2.35
2023-04-05T01:10:54.935Z,2.35
2023-04-05T01:11:27.404Z,2.35
2023-04-05T01:11:59.822Z,2.33
2023-04-05T01:12:32.323Z,2.33
2023-04-05T01:13:04.736Z,2.31
2023-04-05T01:13:37.188Z,2.30
2023-04-05T01:14:09.644Z,2.34
2023-04-05T01:14:42.105Z,2.35
2023-04-05T01:15:14.584Z,2.34
2023-04-05T01:15:47.126Z,2.34
2023-04-05T01:16:19.512Z,2.33
2023-04-05T01:16:51.912Z,2.31
2023-04-05T01:17:24.374Z,2.34
2023-04-05T01:17:56.851Z,2.33
2023-04-05T01:18:29.283Z,2.31
2023-04-05T01:19:01.733Z,2.31
2023-04-05T01:19:34.205Z,2.28
2023-04-05T01:20:06.633Z,2.28
2023-04-05T01:20:39.229Z,2.28
2023-04-05T01:21:11.572Z,2.22
2023-04-05T01:21:44.043Z,2.19
2023-04-05T01:22:16.566Z,2.16
2023-04-05T01:22:49.040Z,2.13
2023-04-05T01:23:21.486Z,2.06
2023-04-05T01:23:53.944Z,2.06
2023-04-05T01:24:26.405Z,2.02
2023-04-05T01:24:58.860Z,1.98
2023-04-05T01:25:31.315Z,1.91
2023-04-05T01:26:03.765Z,1.93
2023-04-05T01:26:36.233Z,1.89
2023-04-05T01:27:08.693Z,1.83
2023-04-05T01:27:41.134Z,1.80
2023-04-05T01:28:13.614Z,1.78
2023-04-05T01:28:46.076Z,1.72
2023-04-05T01:29:18.510Z,1.71
2023-04-05T01:29:50.956Z,1.65
2023-04-05T01:30:23.389Z,1.64
2023-04-05T01:30:55.928Z,1.65
2023-04-05T01:31:28.403Z,1.68
2023-04-05T01:32:00.818Z,1.68
2023-04-05T01:32:33.286Z,1.72
2023-04-05T01:33:05.753Z,1.73
2023-04-05T01:33:38.169Z,1.76
2023-04-05T01:34:10.630Z,1.80
2023-04-05T01:34:43.126Z,1.78
2023-04-05T01:35:15.581Z,1.83
2023-04-05T01:35:48.099Z,1.85
2023-04-05T01:36:20.517Z,1.89
2023-04-05T01:36:52.936Z,1.90
2023-04-05T01:37:25.376Z,1.91
2023-04-05T01:37:57.834Z,1.93
2023-04-05T01:38:30.282Z,1.94
2023-04-05T01:39:02.739Z,1.98
2023-04-05T01:39:35.209Z,1.99
2023-04-05T01:40:07.652Z,2.04
2023-04-05T01:40:40.346Z,2.08
2023-04-05T01:41:12.575Z,2.12
2023-04-05T01:41:45.018Z,2.10
2023-04-05T01:42:17.497Z,2.12
2023-04-05T01:42:49.981Z,2.16
2023-04-05T01:43:22.445Z,2.16
2023-04-05T01:43:54.919Z,2.17
2023-04-05T01:44:27.367Z,2.17
2023-04-05T01:44:59.849Z,2.16
2023-04-05T01:45:32.671Z,2.16
2023-04-05T01:46:05.110Z,2.19
2023-04-05T01:46:37.653Z,2.23
2023-04-05T01:47:09.998Z,2.20
2023-04-05T01:47:42.562Z,2.23
2023-04-05T01:48:14.882Z,2.26
2023-04-05T01:48:47.317Z,2.27
2023-04-05T01:49:19.738Z,2.26
2023-04-05T01:49:52.175Z,2.27
2023-04-05T01:50:24.643Z,2.27
2023-04-05T01:50:57.105Z,2.23
2023-04-05T01:51:30.346Z,2.22
2023-04-05T01:52:02.029Z,2.23
2023-04-05T01:52:34.442Z,2.26
2023-04-05T01:53:06.881Z,2.26
2023-04-05T01:53:39.349Z,2.23
2023-04-05T01:54:11.810Z,2.23
2023-04-05T01:54:44.302Z,2.26
2023-04-05T01:55:16.740Z,2.27
2023-04-05T01:55:49.215Z,2.27
2023-04-05T01:56:21.661Z,2.26
2023-04-05T01:56:54.133Z,2.27
2023-04-05T01:57:26.582Z,2.26
2023-04-05T01:57:59.050Z,2.26
2023-04-05T01:58:31.484Z,2.26
2023-04-05T01:59:03.926Z,2.23
2023-04-05T01:59:36.356Z,2.22
2023-04-05T02:00:08.820Z,2.26
2023-04-05T02:00:41.433Z,2.23
2023-04-05T02:01:13.797Z,2.22
2023-04-05T02:01:46.200Z,2.26
2023-04-05T02:02:18.646Z,2.26
2023-04-05T02:02:51.142Z,2.22
2023-04-05T02:03:23.665Z,2.23
2023-04-05T02:03:56.317Z,2.20
2023-04-05T02:04:28.480Z,2.22
2023-04-05T02:05:00.970Z,2.19
2023-04-05T02:05:33.430Z,2.19
2023-04-05T02:06:05.950Z,2.17
2023-04-05T02:06:38.791Z,2.17
2023-04-05T02:07:10.913Z,2.19
2023-04-05T02:07:43.363Z,2.17
2023-04-05T02:08:15.924Z,2.17
2023-04-05T02:08:48.334Z,2.16
2023-04-05T02:09:20.812Z,2.17
2023-04-05T02:09:53.258Z,2.16
2023-04-05T02:10:25.714Z,2.15
2023-04-05T02:10:58.180Z,2.12
2023-04-05T02:11:30.639Z,2.10
2023-04-05T02:12:03.090Z,2.10
2023-04-05T02:12:35.569Z,2.09
2023-04-05T02:13:08.023Z,2.06
2023-04-05T02:13:40.464Z,2.09
2023-04-05T02:14:12.914Z,2.08
2023-04-05T02:14:45.386Z,2.06
2023-04-05T02:15:17.891Z,2.01
2023-04-05T02:15:50.401Z,1.99
2023-04-05T02:16:22.872Z,1.97
2023-04-05T02:16:55.357Z,1.94
2023-04-05T02:17:27.860Z,1.94
2023-04-05T02:18:00.313Z,1.93
2023-04-05T02:18:32.739Z,1.89
2023-04-05T02:19:05.196Z,1.89
2023-04-05T02:19:37.665Z,1.87
2023-04-05T02:20:10.120Z,1.87
2023-04-05T02:20:42.639Z,1.89
2023-04-05T02:21:15.015Z,1.89
2023-04-05T02:21:47.492Z,1.89
2023-04-05T02:22:19.939Z,1.90
2023-04-05T02:22:52.398Z,1.90
2023-04-05T02:23:24.862Z,1.90
2023-04-05T02:23:57.380Z,1.87
2023-04-05T02:24:29.808Z,1.90
2023-04-05T02:25:02.245Z,1.89
2023-04-05T02:25:34.734Z,1.87
2023-04-05T02:26:07.208Z,1.85
2023-04-05T02:26:39.665Z,1.85
2023-04-05T02:27:12.088Z,1.82
2023-04-05T02:27:44.567Z,1.78
2023-04-05T02:28:17.042Z,1.73
2023-04-05T02:28:49.501Z,1.68
2023-04-05T02:29:21.956Z,1.62
2023-04-05T02:29:54.411Z,1.58
2023-04-05T02:30:26.891Z,1.55
2023-04-05T02:30:59.394Z,1.52
2023-04-05T02:31:31.901Z,1.47
2023-04-05T02:32:04.422Z,1.46
2023-04-05T02:32:36.877Z,1.44
2023-04-05T02:33:09.336Z,1.46
2023-04-05T02:33:41.725Z,1.46
2023-04-05T02:34:14.214Z,1.47
2023-04-05T02:34:46.654Z,1.47
2023-04-05T02:35:19.151Z,1.50
2023-04-05T02:35:51.610Z,1.52
2023-04-05T02:36:24.035Z,1.54
2023-04-05T02:36:56.516Z,1.54
2023-04-05T02:37:28.947Z,1.55
2023-04-05T02:38:01.433Z,1.57
2023-04-05T02:38:33.890Z,1.60
2023-04-05T02:39:06.350Z,1.60
2023-04-05T02:39:38.801Z,1.55
2023-04-05T02:40:11.237Z,1.57
2023-04-05T02:40:43.742Z,1.57
2023-04-05T02:41:16.205Z,1.61
2023-04-05T02:41:48.678Z,1.64
2023-04-05T02:42:21.130Z,1.65
2023-04-05T02:42:53.618Z,1.65
2023-04-05T02:43:26.034Z,1.65
2023-04-05T02:43:58.509Z,1.68
2023-04-05T02:44:30.966Z,1.68
2023-04-05T02:45:03.438Z,1.71
2023-04-05T02:45:35.901Z,1.72
2023-04-05T02:46:08.406Z,1.73
2023-04-05T02:46:40.797Z,1.72
2023-04-05T02:47:13.264Z,1.71
2023-04-05T02:47:45.722Z,1.72
2023-04-05T02:48:18.180Z,1.69
2023-04-05T02:48:50.654Z,1.72
2023-04-05T02:49:23.104Z,1.72
2023-04-05T02:49:55.546Z,1.71
2023-04-05T02:50:28.054Z,1.73
2023-04-05T02:51:00.517Z,1.73
2023-04-05T02:51:32.994Z,1.72
2023-04-05T02:52:05.468Z,1.71
2023-04-05T02:52:37.931Z,1.73
2023-04-05T02:53:10.434Z,1.71
2023-04-05T02:53:42.882Z,1.69
2023-04-05T02:54:15.365Z,1.69
2023-04-05T02:54:47.839Z,1.69
2023-04-05T02:55:21.121Z,1.68
2023-04-05T02:55:53.587Z,1.69
2023-04-05T02:56:26.073Z,1.68
2023-04-05T02:56:58.529Z,1.65
2023-04-05T02:57:30.989Z,1.64
2023-04-05T02:58:03.436Z,1.62
2023-04-05T02:58:35.883Z,1.62
2023-04-05T02:59:08.340Z,1.62
2023-04-05T02:59:40.764Z,1.62
2023-04-05T03:00:13.244Z,1.62
2023-04-05T03:00:45.671Z,1.61
2023-04-05T03:01:18.141Z,1.57
2023-04-05T03:01:50.592Z,1.52
2023-04-05T03:02:23.049Z,1.52
2023-04-05T03:02:55.532Z,1.50
2023-04-05T03:03:27.948Z,1.47
2023-04-05T03:04:00.498Z,1.44
2023-04-05T03:04:32.845Z,1.42
2023-04-05T03:05:05.406Z,1.39
2023-04-05T03:05:37.845Z,1.40
2023-04-05T03:06:10.649Z,1.40
2023-04-05T03:06:42.743Z,1.39
2023-04-05T03:07:15.216Z,1.37
2023-04-05T03:07:47.660Z,1.40
2023-04-05T03:08:20.864Z,1.42
2023-04-05T03:08:53.333Z,1.40
2023-04-05T03:09:26.362Z,1.36
2023-04-05T03:09:58.829Z,1.37
2023-04-05T03:10:31.305Z,1.37
2023-04-05T03:11:03.747Z,1.34
2023-04-05T03:11:36.215Z,1.32
2023-04-05T03:12:08.694Z,1.32
2023-04-05T03:12:41.146Z,1.32
2023-04-05T03:13:13.590Z,1.28
2023-04-05T03:13:46.055Z,1.26
2023-04-05T03:14:18.492Z,1.26
2023-04-05T03:14:50.944Z,1.25
2023-04-05T03:15:23.424Z,1.25
2023-04-05T03:15:55.887Z,1.24
2023-04-05T03:16:28.347Z,1.22
2023-04-05T03:17:00.886Z,1.21
2023-04-05T03:17:33.254Z,1.21
2023-04-05T03:18:05.682Z,1.21
2023-04-05T03:18:38.132Z,1.24
2023-04-05T03:19:10.590Z,1.24
2023-04-05T03:19:43.050Z,1.22
2023-04-05T03:20:15.479Z,1.24
2023-04-05T03:20:47.943Z,1.22
2023-04-05T03:21:20.381Z,1.21
2023-04-05T03:21:52.831Z,1.19
2023-04-05T03:22:25.296Z,1.19
2023-04-05T03:22:57.755Z,1.22
2023-04-05T03:23:30.232Z,1.21
2023-04-05T03:24:02.701Z,1.25
2023-04-05T03:24:35.180Z,1.24
2023-04-05T03:25:07.629Z,1.24
2023-04-05T03:25:40.326Z,1.21
2023-04-05T03:26:12.538Z,1.21
2023-04-05T03:26:45.080Z,1.18
2023-04-05T03:27:17.564Z,1.16
2023-04-05T03:27:50.045Z,1.12
2023-04-05T03:28:22.497Z,1.08
2023-04-05T03:28:54.968Z,1.07
2023-04-05T03:29:27.524Z,1.07
2023-04-05T03:29:59.995Z,1.03
2023-04-05T03:30:32.444Z,1.04
2023-04-05T03:31:04.958Z,1.01
2023-04-05T03:31:37.436Z,1.01
2023-04-05T03:32:09.863Z,1.00
2023-04-05T03:32:42.332Z,1.01
2023-04-05T03:33:14.762Z,0.97
2023-04-05T03:33:47.209Z,1.00
2023-04-05T03:34:19.673Z,1.00
2023-04-05T03:34:52.113Z,0.97
2023-04-05T03:35:24.598Z,0.92
2023-04-05T03:35:57.043Z,0.92
2023-04-05T03:36:29.437Z,0.90
2023-04-05T03:37:01.903Z,0.89
2023-04-05T03:37:34.386Z,0.90
2023-04-05T03:38:06.831Z,0.90
2023-04-05T03:38:40.328Z,0.89
2023-04-05T03:39:11.724Z,0.89
2023-04-05T03:39:44.164Z,0.85
2023-04-05T03:40:16.650Z,0.85
2023-04-05T03:40:49.110Z,0.82
2023-04-05T03:41:21.566Z,0.80
2023-04-05T03:41:54.057Z,0.76
2023-04-05T03:42:26.496Z,0.78
2023-04-05T03:42:58.953Z,0.72
2023-04-05T03:43:31.396Z,0.72
2023-04-05T03:44:03.852Z,0.68
2023-04-05T03:44:36.315Z,0.70
2023-04-05T03:45:08.768Z,0.67
2023-04-05T03:45:41.475Z,0.68
2023-04-05T03:46:13.711Z,0.71
2023-04-05T03:46:46.143Z,0.67
2023-04-05T03:47:18.635Z,0.68
2023-04-05T03:47:51.207Z,0.67
2023-04-05T03:48:23.557Z,0.65
2023-04-05T03:48:56.033Z,0.65
2023-04-05T03:49:28.506Z,0.62
2023-04-05T03:50:00.955Z,0.61
2023-04-05T03:50:33.424Z,0.53
2023-04-05T03:51:05.895Z,0.52
2023-04-05T03:51:38.344Z,0.46
2023-04-05T03:52:10.794Z,0.42
2023-04-05T03:52:43.266Z,0.41
2023-04-05T03:53:15.707Z,0.34
2023-04-05T03:53:48.186Z,0.33
2023-04-05T03:54:20.647Z,0.31
2023-04-05T03:54:53.119Z,0.31
2023-04-05T03:55:25.588Z,0.31
2023-04-05T03:55:58.133Z,0.31
2023-04-05T03:56:30.587Z,0.30
2023-04-05T03:57:03.059Z,0.34
2023-04-05T03:57:35.557Z,0.30
2023-04-05T03:58:08.054Z,0.28
2023-04-05T03:58:40.509Z,0.25
2023-04-05T03:59:13.047Z,0.23
2023-04-05T03:59:45.444Z,0.20
2023-04-05T04:00:17.935Z,0.18
2023-04-05T04:00:50.398Z,0.16
2023-04-05T04:01:22.883Z,0.15
2023-04-05T04:01:56.112Z,0.16
2023-04-05T04:02:28.682Z,0.20
2023-04-05T04:03:01.229Z,0.21
2023-04-05T04:03:33.488Z,0.21
2023-04-05T04:04:05.945Z,0.23
2023-04-05T04:04:38.476Z,0.25
2023-04-05T04:05:10.873Z,0.28
2023-04-05T04:05:43.584Z,0.28
2023-04-05T04:06:17.807Z,0.31
2023-04-05T04:06:48.253Z,0.31
2023-04-05T04:07:20.689Z,0.34
2023-04-05T04:07:53.378Z,0.33
2023-04-05T04:08:25.861Z,0.34
2023-04-05T04:08:58.320Z,0.36
2023-04-05T04:09:30.783Z,0.34
2023-04-05T04:10:03.273Z,0.34
2023-04-05T04:10:35.727Z,0.36
2023-04-05T04:11:08.182Z,0.33
2023-04-05T04:11:40.665Z,0.31
2023-04-05T04:12:13.098Z,0.28
2023-04-05T04:12:45.557Z,0.25
2023-04-05T04:13:18.042Z,0.21
2023-04-05T04:13:50.500Z,0.20
2023-04-05T04:14:22.992Z,0.16
2023-04-05T04:14:55.424Z,0.12
2023-04-05T04:15:27.865Z,0.07
2023-04-05T04:16:00.323Z,0.05
2023-04-05T04:16:32.817Z,0.00
2023-04-05T04:17:05.222Z,0.03
2023-04-05T04:17:37.756Z,0.03
2023-04-05T04:18:10.372Z,0.06
2023-04-05T04:18:42.651Z,0.06
2023-04-05T04:19:15.098Z,0.09
2023-04-05T04:19:47.584Z,0.05
2023-04-05T04:20:20.100Z,0.02
2023-04-05T04:20:52.592Z,-0.01
2023-04-05T04:21:25.143Z,-0.04
2023-04-05T04:21:57.627Z,-0.06
2023-04-05T04:22:30.100Z,-0.05
2023-04-05T04:23:02.562Z,-0.05
2023-04-05T04:23:35.044Z,-0.05
2023-04-05T04:24:07.518Z,0.00
2023-04-05T04:24:40.050Z,0.03
2023-04-05T04:25:12.525Z,0.00
2023-04-05T04:25:45.054Z,0.03
2023-04-05T04:26:17.542Z,0.02
2023-04-05T04:26:50.050Z,0.05
2023-04-05T04:27:22.563Z,0.06
2023-04-05T04:27:56.011Z,0.07
2023-04-05T04:28:27.507Z,0.09
2023-04-05T04:28:59.996Z,0.12
2023-04-05T04:29:32.471Z,0.13
2023-04-05T04:30:04.965Z,0.15
2023-04-05T04:30:37.434Z,0.18
2023-04-05T04:31:09.942Z,0.20
2023-04-05T04:31:42.509Z,0.20
2023-04-05T04:32:14.953Z,0.21
2023-04-05T04:32:47.464Z,0.21
2023-04-05T04:33:19.904Z,0.21
2023-04-05T04:33:52.377Z,0.21
2023-04-05T04:34:24.860Z,0.23
2023-04-05T04:34:57.383Z,0.21
2023-04-05T04:35:29.904Z,0.21
2023-04-05T04:36:02.362Z,0.20
2023-04-05T04:36:34.834Z,0.18
2023-04-05T04:37:07.211Z,0.18
2023-04-05T04:37:39.752Z,0.15
2023-04-05T04:38:12.237Z,0.13
2023-04-05T04:38:44.773Z,0.13
2023-04-05T04:39:17.381Z,0.12
2023-04-05T04:39:49.945Z,0.13
2023-04-05T04:40:22.387Z,0.12
2023-04-05T04:40:54.882Z,0.16
2023-04-05T04:41:27.397Z,0.16
2023-04-05T04:41:59.846Z,0.12
2023-04-05T04:42:32.294Z,0.10
2023-04-05T04:43:04.795Z,0.10
2023-04-05T04:43:37.337Z,0.07
2023-04-05T04:44:09.775Z,0.06
2023-04-05T04:44:42.273Z,0.00
2023-04-05T04:45:14.725Z,-0.01
2023-04-05T04:45:47.280Z,-0.09
2023-04-05T04:46:19.755Z,-0.13
2023-04-05T04:47:13.046Z,-0.19
2023-04-05T04:47:44.041Z,-0.23
2023-04-05T04:48:16.492Z,-0.24
2023-04-05T04:48:48.903Z,-0.27
2023-04-05T04:49:21.336Z,-0.27
2023-04-05T04:49:53.826Z,-0.30
2023-04-05T04:50:26.268Z,-0.33
2023-04-05T04:50:58.758Z,-0.31
2023-04-05T04:51:31.230Z,-0.23
2023-04-05T04:52:03.727Z,-0.22
2023-04-05T04:52:36.183Z,-0.18
2023-04-05T04:53:08.735Z,-0.18
2023-04-05T04:53:41.196Z,-0.15
2023-04-05T04:54:13.681Z,-0.11
2023-04-05T04:54:46.137Z,-0.06
2023-04-05T04:55:18.584Z,-0.04
2023-04-05T04:55:51.014Z,-0.05
2023-04-05T04:56:23.460Z,0.00
2023-04-05T04:56:55.905Z,0.03
2023-04-05T04:57:28.385Z,0.05
2023-04-05T04:58:00.880Z,0.05
2023-04-05T04:58:33.324Z,0.09
2023-04-05T04:59:05.840Z,0.09
2023-04-05T04:59:38.233Z,0.10
2023-04-05T05:00:10.702Z,0.13
2023-04-05T05:00:43.239Z,0.12
2023-04-05T05:01:15.631Z,0.15
2023-04-05T05:01:48.069Z,0.18
2023-04-05T05:02:20.493Z,0.20
2023-04-05T05:02:53.014Z,0.23
2023-04-05T05:03:25.408Z,0.20
2023-04-05T05:03:57.900Z,0.24
2023-04-05T05:04:30.459Z,0.21
2023-04-05T05:05:02.840Z,0.21
2023-04-05T05:05:35.312Z,0.23
2023-04-05T05:06:07.828Z,0.25
2023-04-05T05:06:40.396Z,0.30
2023-04-05T05:07:12.847Z,0.27
2023-04-05T05:07:45.288Z,0.28
2023-04-05T05:08:19.667Z,0.33
2023-04-05T05:08:50.200Z,0.33
2023-04-05T05:09:22.640Z,0.39
2023-04-05T05:09:55.132Z,0.36
2023-04-05T05:10:27.575Z,0.34
2023-04-05T05:11:00.054Z,0.34
2023-04-05T05:11:32.507Z,0.36
2023-04-05T05:12:04.979Z,0.31
2023-04-05T05:12:37.419Z,0.34
2023-04-05T05:13:09.885Z,0.33
2023-04-05T05:13:42.343Z,0.31
2023-04-05T05:14:14.793Z,0.31
2023-04-05T05:14:47.222Z,0.34
2023-04-05T05:15:19.690Z,0.31
2023-04-05T05:15:52.154Z,0.31
2023-04-05T05:16:24.687Z,0.30
2023-04-05T05:16:57.087Z,0.28
2023-04-05T05:17:29.559Z,0.24
2023-04-05T05:18:02.037Z,0.25
2023-04-05T05:18:34.454Z,0.21
2023-04-05T05:19:06.921Z,0.23
2023-04-05T05:19:39.379Z,0.21
2023-04-05T05:20:11.829Z,0.21
2023-04-05T05:20:44.315Z,0.20
2023-04-05T05:21:16.790Z,0.20
2023-04-05T05:21:49.231Z,0.20
2023-04-05T05:22:21.690Z,0.20
2023-04-05T05:22:54.146Z,0.21
2023-04-05T05:23:26.662Z,0.21
2023-04-05T05:23:59.088Z,0.23
2023-04-05T05:24:31.542Z,0.23
2023-04-05T05:25:03.987Z,0.23
2023-04-05T05:25:37.298Z,0.21
2023-04-05T05:26:08.891Z,0.23
2023-04-05T05:26:41.347Z,0.24
2023-04-05T05:27:13.824Z,0.27
2023-04-05T05:27:46.257Z,0.30
2023-04-05T05:28:18.743Z,0.31
2023-04-05T05:28:51.243Z,0.34
2023-04-05T05:29:23.716Z,0.34
2023-04-05T05:29:56.152Z,0.34
2023-04-05T05:30:28.608Z,0.34
2023-04-05T05:31:01.123Z,0.36
2023-04-05T05:31:33.534Z,0.38
2023-04-05T05:32:05.966Z,0.39
2023-04-05T05:32:39.014Z,0.46
2023-04-05T05:33:10.941Z,0.48
2023-04-05T05:33:43.324Z,0.51
2023-04-05T05:34:15.770Z,0.51
2023-04-05T05:34:48.337Z,0.51
2023-04-05T05:35:21.072Z,0.52
2023-04-05T05:35:53.597Z,0.53
2023-04-05T05:36:25.999Z,0.60
2023-04-05T05:36:58.508Z,0.58
2023-04-05T05:37:38.006Z,0.62
2023-04-05T05:38:12.648Z,0.65
2023-04-05T05:38:43.178Z,0.67
2023-04-05T05:39:15.698Z,0.65
2023-04-05T05:39:48.140Z,0.67
2023-04-05T05:40:20.678Z,0.68
2023-04-05T05:40:53.941Z,0.70
2023-04-05T05:41:26.549Z,0.70
2023-04-05T05:41:59.059Z,0.70
2023-04-05T05:42:31.633Z,0.68
2023-04-05T05:43:04.110Z,0.70
2023-04-05T05:43:36.640Z,0.71
2023-04-05T05:44:09.138Z,0.71
2023-04-05T05:44:41.593Z,0.71
2023-04-05T05:45:14.159Z,0.76
2023-04-05T05:45:46.702Z,0.80
2023-04-05T05:46:21.057Z,0.79
2023-04-05T05:46:51.747Z,0.80
2023-04-05T05:47:24.285Z,0.83
2023-04-05T05:47:56.809Z,0.83
2023-04-05T05:48:29.208Z,0.86
2023-04-05T05:49:01.801Z,0.88
2023-04-05T05:49:34.340Z,0.90
2023-04-05T05:50:06.829Z,0.97
2023-04-05T05:50:39.754Z,0.98
2023-04-05T05:51:11.818Z,1.00
2023-04-05T05:51:44.346Z,1.01
2023-04-05T05:52:16.906Z,1.03
2023-04-05T05:52:49.318Z,1.04
2023-04-05T05:53:21.805Z,1.01
2023-04-05T05:53:54.316Z,0.98
2023-04-05T05:54:26.774Z,0.97
2023-04-05T05:54:59.239Z,1.00
2023-04-05T05:55:31.720Z,0.98
2023-04-05T05:56:04.213Z,0.97
2023-04-05T05:56:36.682Z,0.98
2023-04-05T05:57:09.166Z,1.03
2023-04-05T05:57:41.682Z,1.04
2023-04-05T05:58:14.177Z,1.06
2023-04-05T05:58:46.686Z,1.07
2023-04-05T05:59:19.122Z,1.07
2023-04-05T05:59:51.636Z,1.08
2023-04-05T06:00:24.125Z,1.12
2023-04-05T06:00:56.646Z,1.12
2023-04-05T06:01:29.164Z,1.16
2023-04-05T06:02:01.681Z,1.18
2023-04-05T06:02:34.258Z,1.24
2023-04-05T06:03:06.739Z,1.24
2023-04-05T06:03:39.404Z,1.28
2023-04-05T06:04:11.686Z,1.34
2023-04-05T06:04:44.266Z,1.36
2023-04-05T06:05:16.562Z,1.42
2023-04-05T06:05:49.089Z,1.46
2023-04-05T06:06:21.550Z,1.52
2023-04-05T06:06:54.043Z,1.60
2023-04-05T06:07:26.522Z,1.64
2023-04-05T06:07:58.999Z,1.69
2023-04-05T06:08:31.499Z,1.72
2023-04-05T06:09:03.995Z,1.76
2023-04-05T06:09:36.477Z,1.78
2023-04-05T06:10:08.971Z,1.83
2023-04-05T06:10:41.535Z,1.89
2023-04-05T06:11:13.898Z,1.93
2023-04-05T06:11:55.707Z,1.94
2023-04-05T06:12:18.802Z,1.99
2023-04-05T06:12:51.325Z,2.04
2023-04-05T06:13:23.830Z,2.08
2023-04-05T06:13:56.903Z,2.10
2023-04-05T06:14:29.423Z,2.16
2023-04-05T06:15:01.986Z,2.16
2023-04-05T06:15:34.417Z,2.19
2023-04-05T06:16:06.960Z,2.20
2023-04-05T06:16:39.463Z,2.23
2023-04-05T06:17:11.844Z,2.27
2023-04-05T06:17:44.331Z,2.30
2023-04-05T06:18:16.870Z,2.35
2023-04-05T06:18:49.377Z,2.40
2023-04-05T06:19:21.931Z,2.46
2023-04-05T06:19:54.373Z,2.51
2023-04-05T06:20:26.884Z,2.55
2023-04-05T06:20:59.353Z,2.58
2023-04-05T06:21:31.868Z,2.64
2023-04-05T06:22:04.341Z,2.69
2023-04-05T06:22:36.784Z,2.71
2023-04-05T06:23:09.269Z,2.76
2023-04-05T06:23:42.414Z,2.81
2023-04-05T06:24:14.959Z,2.88
2023-04-05T06:24:47.435Z,2.89
2023-04-05T06:25:19.951Z,3.00
2023-04-05T06:25:52.408Z,3.06
2023-04-05T06:26:24.977Z,3.13
2023-04-05T06:26:57.475Z,3.23
2023-04-05T06:27:29.964Z,3.34
2023-04-05T06:28:02.493Z,3.47
2023-04-05T06:28:34.916Z,3.64
2023-04-05T06:29:07.400Z,3.78
2023-04-05T06:29:39.880Z,4.07
2023-04-05T06:30:12.318Z,4.36
2023-04-05T06:30:44.822Z,4.77
2023-04-05T06:31:17.655Z,5.23
2023-04-05T06:31:49.762Z,5.68
2023-04-05T06:32:22.199Z,6.16
2023-04-05T06:32:54.848Z,6.58
2023-04-05T06:33:27.174Z,7.02
2023-04-05T06:33:59.636Z,7.47
2023-04-05T06:34:32.110Z,7.85
2023-04-05T06:35:04.595Z,8.22
2023-04-05T06:35:37.095Z,8.55
2023-04-05T06:36:09.567Z,8.88
2023-04-05T06:36:42.035Z,9.20
2023-04-05T06:37:14.529Z,9.57
2023-04-05T06:37:47.039Z,9.91
2023-04-05T06:38:19.538Z,10.21
2023-04-05T06:38:52.002Z,10.53
2023-04-05T06:39:24.457Z,10.88
2023-04-05T06:39:56.927Z,11.16
2023-04-05T06:40:29.426Z,11.43
2023-04-05T06:41:01.910Z,11.68
2023-04-05T06:41:34.441Z,11.89
2023-04-05T06:42:06.902Z,12.11
2023-04-05T06:42:39.362Z,12.34
2023-04-05T06:43:11.835Z,12.51
2023-04-05T06:43:44.325Z,12.67
2023-04-05T06:44:16.804Z,12.84
2023-04-05T06:44:49.274Z,13.04
2023-04-05T06:45:21.748Z,13.22
2023-04-05T06:45:54.326Z,13.44
2023-04-05T06:46:26.753Z,13.56
2023-04-05T06:46:59.220Z,13.63
2023-04-05T06:47:31.710Z,13.59
2023-04-05T06:48:04.203Z,13.59
2023-04-05T06:48:36.670Z,13.67
2023-04-05T06:49:09.163Z,13.74
2023-04-05T06:49:41.641Z,13.87
2023-04-05T06:50:14.137Z,14.04
2023-04-05T06:50:46.620Z,14.20
2023-04-05T06:51:19.118Z,14.39
2023-04-05T06:51:51.691Z,14.62
2023-04-05T06:52:24.145Z,14.83
2023-04-05T06:52:56.849Z,14.93
2023-04-05T06:53:29.133Z,15.11
2023-04-05T06:54:01.628Z,15.35
2023-04-05T06:54:34.084Z,15.56
2023-04-05T06:55:06.594Z,15.79
2023-04-05T06:55:39.044Z,16.07
2023-04-05T06:56:11.522Z,16.40
2023-04-05T06:56:43.981Z,16.73
2023-04-05T06:57:16.493Z,17.04
2023-04-05T06:57:48.949Z,17.30
2023-04-05T06:58:21.451Z,17.66
2023-04-05T06:58:53.925Z,17.97
2023-04-05T06:59:26.403Z,18.22
2023-04-05T06:59:58.857Z,18.54
2023-04-05T07:00:31.445Z,18.83
2023-04-05T07:01:03.851Z,19.01
2023-04-05T07:01:36.378Z,19.23
2023-04-05T07:02:08.803Z,19.29
2023-04-05T07:02:41.343Z,19.35
2023-04-05T07:03:13.780Z,19.46
2023-04-05T07:03:46.238Z,19.48
2023-04-05T07:04:18.762Z,19.55
2023-04-05T07:04:51.290Z,19.63
2023-04-05T07:05:23.684Z,19.78
2023-04-05T07:05:56.180Z,19.86
2023-04-05T07:06:28.640Z,19.90
2023-04-05T07:07:01.081Z,19.91
2023-04-05T07:07:33.546Z,19.94
2023-04-05T07:08:06.023Z,20.09
2023-04-05T07:08:38.502Z,20.30
2023-04-05T07:09:10.967Z,20.35
2023-04-05T07:09:43.441Z,20.39
2023-04-05T07:10:15.931Z,20.47
2023-04-05T07:10:48.432Z,20.54